LNG Aquarius — V7BW6 — position and weather

sailwx.info

Track history (hours):
 
Tides and Currents Weather Stations Pressure Air Temp Water Temp Dewpoint Dewpoint Depression Visibility Wind Speed Wind Dir Waves Ship Positions

LNG Aquarius

Last reported at 2017-Jan-05 11:33 UTC. Time now 2017-Jan-19 19:21 UTC.
Position N 16°18' W 062°40'.
Warning: this ship's position is 14 days out of date.

Type: Tanker. MMSI: 538001385.

Date/timePositionNaut miles runAvg speedWind from/ knotsBaromVisibWave heightAir tempDewpointWater temp
2017-Jan-05 11:33N 16°18' W 062°40'1513.4
2017-Jan-05 10:24N 16°23' W 062°25'1613.6
2017-Jan-05 09:14N 16°28' W 062°09'913.4
2017-Jan-05 08:33N 16°32' W 062°01'1312.7
2017-Jan-05 07:33N 16°37' W 061°49'1312.8
2017-Jan-05 06:33N 16°44' W 061°37'1312.9
2017-Jan-05 05:33N 16°50' W 061°25'1313.2
2017-Jan-05 04:33N 16°55' W 061°13'1313.3
2017-Jan-05 03:34N 17°01' W 061°00'  
Track history (hours):
 
Tides and Currents Weather Stations Pressure Air Temp Water Temp Dewpoint Dewpoint Depression Visibility Wind Speed Wind Dir Waves Ship Positions

LNG Aquarius

Last reported at 2017-Jan-05 11:33 UTC. Time now 2017-Jan-19 19:21 UTC.
Position N 16°18' W 062°40'.
Warning: this ship's position is 14 days out of date.

Type: Tanker. MMSI: 538001385.

Date/timePositionNaut miles runAvg speedWind from/ knotsBaromVisibWave heightAir tempDewpointWater temp
2017-Jan-05 11:33N 16°18' W 062°40'1513.4
2017-Jan-05 10:24N 16°23' W 062°25'1613.6
2017-Jan-05 09:14N 16°28' W 062°09'913.4
2017-Jan-05 08:33N 16°32' W 062°01'1312.7
2017-Jan-05 07:33N 16°37' W 061°49'1312.8
2017-Jan-05 06:33N 16°44' W 061°37'1312.9
2017-Jan-05 05:33N 16°50' W 061°25'1313.2
2017-Jan-05 04:33N 16°55' W 061°13'1313.3
2017-Jan-05 03:34N 17°01' W 061°00'  

Dump ship's entire track history